createdAt,value
2019-02-03T00:03:24.846Z,17.87
2019-02-03T00:09:24.424Z,19.17
2019-02-03T00:12:05.266Z,17.47
2019-02-03T00:14:50.037Z,17.90
2019-02-03T00:17:34.410Z,17.87
2019-02-03T00:20:12.534Z,16.27
2019-02-03T00:22:55.435Z,15.73
2019-02-03T00:36:57.095Z,17.37
2019-02-03T00:39:38.417Z,16.90
2019-02-03T00:42:21.008Z,16.47
2019-02-03T00:53:34.518Z,18.30
2019-02-03T00:59:03.238Z,16.90
2019-02-03T01:04:30.409Z,18.07
2019-02-03T01:12:54.581Z,19.33
2019-02-03T01:18:24.278Z,18.60
2019-02-03T01:26:50.705Z,19.53
2019-02-03T01:29:33.345Z,20.57
2019-02-03T01:32:16.567Z,21.77
2019-02-03T01:34:57.613Z,22.97
2019-02-03T01:37:41.771Z,23.87
2019-02-03T01:40:24.043Z,21.33
2019-02-03T01:46:02.932Z,22.50
2019-02-03T01:57:22.976Z,21.63
2019-02-03T02:03:02.407Z,22.10
2019-02-03T02:05:43.140Z,21.83
2019-02-03T02:08:30.191Z,22.97
2019-02-03T02:11:09.018Z,22.40
2019-02-03T02:13:49.859Z,22.77
2019-02-03T02:28:03.945Z,25.53
2019-02-03T02:33:38.900Z,24.07
2019-02-03T02:39:09.456Z,24.43
2019-02-03T02:41:51.810Z,26.00
2019-02-03T02:44:32.970Z,25.00
2019-02-03T02:50:05.184Z,24.60
2019-02-03T02:52:47.517Z,28.10
2019-02-03T02:55:28.606Z,29.27
2019-02-03T03:03:51.551Z,29.03
2019-02-03T03:15:11.176Z,26.80
2019-02-03T03:20:41.739Z,25.57
2019-02-03T03:26:12.079Z,27.53
2019-02-03T03:31:37.162Z,24.87
2019-02-03T03:37:07.042Z,27.83
2019-02-03T03:48:37.497Z,16.53
2019-02-03T03:54:10.350Z,14.73
2019-02-03T03:57:01.004Z,12.10
2019-02-03T04:02:30.336Z,9.70
2019-02-03T04:05:10.824Z,8.83
2019-02-03T04:07:53.256Z,8.33
2019-02-03T04:10:36.042Z,7.80
2019-02-03T04:13:16.595Z,7.67
2019-02-03T04:18:55.064Z,8.47
2019-02-03T04:21:37.233Z,10.23
2019-02-03T04:24:19.339Z,10.33
2019-02-03T04:27:06.922Z,9.93
2019-02-03T04:38:19.265Z,11.30
2019-02-03T04:41:00.354Z,9.70
2019-02-03T04:43:42.107Z,9.17
2019-02-03T04:49:21.986Z,10.97
2019-02-03T04:54:54.216Z,11.77
2019-02-03T04:57:38.097Z,10.07
2019-02-03T05:00:20.953Z,10.50
2019-02-03T05:05:58.582Z,13.27
2019-02-03T05:08:39.681Z,15.07
2019-02-03T05:11:20.811Z,16.43
2019-02-03T05:16:45.634Z,14.97
2019-02-03T05:25:04.858Z,13.50
2019-02-03T05:27:46.336Z,13.37
2019-02-03T05:30:26.659Z,13.80
2019-02-03T05:36:09.410Z,14.17
2019-02-03T05:41:40.422Z,13.43
2019-02-03T05:47:08.799Z,14.03
2019-02-03T05:52:41.691Z,13.60
2019-02-03T05:58:23.921Z,13.90
2019-02-03T06:00:52.400Z,13.53
2019-02-03T06:03:34.680Z,13.77
2019-02-03T06:06:15.651Z,14.27
2019-02-03T06:11:59.763Z,14.20
2019-02-03T06:17:28.653Z,14.43
2019-02-03T06:23:00.784Z,13.10
2019-02-03T06:28:28.839Z,14.20
2019-02-03T06:36:45.186Z,13.50
2019-02-03T06:39:28.395Z,13.47
2019-02-03T06:42:14.212Z,14.83
2019-02-03T06:44:58.766Z,14.43
2019-02-03T06:47:36.569Z,13.83
2019-02-03T06:50:17.760Z,11.63
2019-02-03T06:58:38.196Z,14.93
2019-02-03T07:01:21.714Z,14.27
2019-02-03T07:04:03.381Z,14.27
2019-02-03T07:06:54.645Z,14.67
2019-02-03T07:09:27.423Z,13.83
2019-02-03T07:12:12.835Z,14.97
2019-02-03T07:14:58.678Z,13.57
2019-02-03T07:17:40.270Z,16.43
2019-02-03T07:23:11.307Z,14.20
2019-02-03T07:25:52.470Z,14.70
2019-02-03T07:28:36.566Z,16.23
2019-02-03T07:31:17.130Z,16.53
2019-02-03T07:34:01.183Z,15.17
2019-02-03T07:39:26.345Z,16.30
2019-02-03T07:45:02.954Z,17.67
2019-02-03T07:50:23.588Z,18.77
2019-02-03T07:56:03.549Z,18.00
2019-02-03T07:58:45.896Z,19.43
2019-02-03T08:07:13.822Z,19.03
2019-02-03T08:09:56.258Z,19.73
2019-02-03T08:12:37.142Z,20.87
2019-02-03T08:15:18.265Z,20.63
2019-02-03T08:21:29.463Z,19.10
2019-02-03T08:24:22.285Z,18.87
2019-02-03T08:35:46.464Z,19.77
2019-02-03T08:38:35.033Z,19.70
2019-02-03T08:41:36.923Z,20.57
2019-02-03T08:44:27.510Z,18.50
2019-02-03T08:47:02.711Z,17.40
2019-02-03T08:50:06.251Z,18.70
2019-02-03T08:52:41.690Z,18.63
2019-02-03T08:58:50.084Z,19.20
2019-02-03T09:01:52.288Z,17.53
2019-02-03T09:04:27.359Z,17.40
2019-02-03T09:07:15.162Z,16.97
2019-02-03T09:10:05.301Z,15.93
2019-02-03T09:15:35.660Z,18.33
2019-02-03T09:18:16.571Z,17.93
2019-02-03T09:20:57.307Z,16.93
2019-02-03T09:23:39.943Z,17.10
2019-02-03T09:26:20.890Z,15.67
2019-02-03T09:29:01.148Z,16.47
2019-02-03T09:34:26.364Z,14.80
2019-02-03T09:39:57.196Z,12.60
2019-02-03T09:42:38.136Z,13.77
2019-02-03T09:45:20.304Z,11.07
2019-02-03T09:50:50.307Z,11.43
2019-02-03T09:53:34.230Z,12.40
2019-02-03T09:56:17.091Z,11.27
2019-02-03T09:58:59.912Z,10.60
2019-02-03T10:04:32.374Z,11.00
2019-02-03T10:10:20.867Z,10.90
2019-02-03T10:15:22.160Z,9.53
2019-02-03T10:20:56.351Z,8.67
2019-02-03T10:23:40.773Z,9.80
2019-02-03T10:26:21.887Z,9.93
2019-02-03T10:29:07.537Z,27.47
2019-02-03T10:34:36.226Z,10.10
2019-02-03T10:37:17.299Z,9.87
2019-02-03T10:48:38.639Z,11.23
2019-02-03T10:51:19.893Z,10.03
2019-02-03T10:54:01.519Z,9.90
2019-02-03T10:59:29.190Z,14.17
2019-02-03T11:04:54.345Z,15.90
2019-02-03T11:07:37.190Z,16.33
2019-02-03T11:13:14.095Z,10.63
2019-02-03T11:15:55.483Z,10.43
2019-02-03T11:18:39.674Z,9.83
2019-02-03T11:21:24.581Z,10.27
2019-02-03T11:24:05.350Z,10.47
2019-02-03T11:26:46.383Z,10.03
2019-02-03T11:35:14.904Z,9.63
2019-02-03T11:40:45.425Z,9.73
2019-02-03T11:49:35.610Z,9.10
2019-02-03T12:04:29.134Z,16.07
2019-02-03T12:07:01.514Z,21.03
2019-02-03T12:12:50.207Z,11.57
2019-02-03T12:15:35.423Z,26.43
2019-02-03T12:21:05.973Z,39.13
2019-02-03T12:26:32.169Z,26.20
2019-02-03T12:34:59.140Z,33.43
2019-02-03T12:40:29.795Z,25.33
2019-02-03T12:46:00.109Z,49.47
2019-02-03T12:51:33.501Z,28.20
2019-02-03T12:54:14.351Z,35.00
2019-02-03T12:56:56.759Z,26.53
2019-02-03T13:05:21.041Z,16.47
2019-02-03T13:08:06.565Z,21.87
2019-02-03T13:22:26.251Z,17.90
2019-02-03T13:25:02.761Z,15.60
2019-02-03T13:30:47.247Z,14.90
2019-02-03T13:33:28.297Z,14.73
2019-02-03T13:36:09.460Z,14.83
2019-02-03T13:44:21.090Z,17.10
2019-02-03T13:47:02.822Z,16.80
2019-02-03T14:24:26.443Z,14.80
2019-02-03T14:30:03.580Z,16.17
2019-02-03T14:32:39.376Z,15.70
2019-02-03T14:41:51.435Z,15.43
2019-02-03T14:44:39.448Z,16.47
2019-02-03T14:47:29.761Z,16.23
2019-02-03T14:50:21.303Z,16.30
2019-02-03T14:53:30.048Z,14.97
2019-02-03T14:56:18.400Z,15.23
2019-02-03T14:59:40.734Z,13.77
2019-02-03T15:02:16.391Z,13.10
2019-02-03T15:05:25.270Z,13.00
2019-02-03T15:08:13.099Z,13.60
2019-02-03T15:11:21.567Z,14.17
2019-02-03T15:14:03.049Z,13.20
2019-02-03T15:16:47.012Z,14.90
2019-02-03T15:19:28.246Z,13.40
2019-02-03T15:22:08.619Z,12.17
2019-02-03T15:24:50.444Z,11.97
2019-02-03T15:27:32.382Z,11.87
2019-02-03T15:30:19.670Z,12.73
2019-02-03T15:32:55.732Z,14.67
2019-02-03T15:35:36.666Z,13.50
2019-02-03T15:38:17.578Z,14.80
2019-02-03T15:40:59.335Z,12.93
2019-02-03T15:43:40.254Z,12.50
2019-02-03T15:49:06.427Z,12.37
2019-02-03T15:51:47.012Z,11.73
2019-02-03T15:54:30.780Z,28.33
2019-02-03T15:57:12.161Z,11.10
2019-02-03T15:59:53.644Z,11.47
2019-02-03T16:02:48.210Z,11.60
2019-02-03T16:05:21.821Z,9.57
2019-02-03T16:08:05.999Z,10.03
2019-02-03T16:10:47.803Z,10.37
2019-02-03T16:13:38.441Z,9.90
2019-02-03T16:16:12.507Z,9.17
2019-02-03T16:18:56.392Z,9.63
2019-02-03T16:24:25.385Z,8.50
2019-02-03T16:27:07.435Z,8.93
2019-02-03T16:29:48.369Z,8.37
2019-02-03T16:32:28.913Z,8.70
2019-02-03T16:35:10.367Z,8.10
2019-02-03T16:40:45.737Z,8.63
2019-02-03T16:43:30.276Z,8.17
2019-02-03T16:48:59.457Z,7.73
2019-02-03T16:51:41.651Z,8.17
2019-02-03T16:57:08.253Z,7.87
2019-02-03T16:59:53.273Z,7.63
2019-02-03T17:02:37.372Z,8.07
2019-02-03T17:05:25.184Z,7.70
2019-02-03T17:08:00.478Z,7.57
2019-02-03T17:10:41.331Z,7.47
2019-02-03T17:13:25.291Z,8.07
2019-02-03T17:16:07.244Z,8.77
2019-02-03T17:18:48.070Z,11.40
2019-02-03T17:21:30.478Z,8.47
2019-02-03T17:24:10.978Z,9.77
2019-02-03T17:26:54.359Z,9.37
2019-02-03T17:29:36.310Z,8.87
2019-02-03T17:35:02.098Z,8.10
2019-02-03T17:37:46.276Z,9.57
2019-02-03T17:46:10.322Z,8.63
2019-02-03T17:48:55.575Z,11.17
2019-02-03T17:51:39.531Z,6.53
2019-02-03T17:54:23.326Z,9.73
2019-02-03T17:57:04.348Z,10.60
2019-02-03T17:59:46.967Z,16.93
2019-02-03T18:02:27.368Z,11.07
2019-02-03T18:05:09.029Z,48.27
2019-02-03T18:07:49.829Z,10.33
2019-02-03T18:10:31.176Z,11.70
2019-02-03T18:13:12.192Z,11.00
2019-02-03T18:15:53.759Z,8.83
2019-02-03T18:18:34.446Z,13.37
2019-02-03T18:21:15.570Z,14.80
2019-02-03T18:23:57.622Z,11.37
2019-02-03T18:26:38.447Z,7.93
2019-02-03T18:29:19.387Z,8.20
2019-02-03T18:32:00.033Z,10.27
2019-02-03T18:34:42.245Z,8.50
2019-02-03T18:37:23.617Z,8.70
2019-02-03T18:42:52.769Z,11.43
2019-02-03T18:45:35.115Z,8.87
2019-02-03T18:48:17.233Z,8.37
2019-02-03T18:50:58.809Z,10.97
2019-02-03T18:53:43.226Z,7.73
2019-02-03T18:56:25.233Z,8.03
2019-02-03T18:59:06.504Z,7.93
2019-02-03T19:01:47.403Z,7.53
2019-02-03T19:04:30.103Z,6.07
2019-02-03T19:07:11.362Z,7.10
2019-02-03T19:09:52.389Z,9.67
2019-02-03T19:12:32.953Z,7.73
2019-02-03T19:15:13.445Z,9.33
2019-02-03T19:17:55.521Z,7.80
2019-02-03T19:20:36.419Z,8.17
2019-02-03T19:23:16.991Z,7.83
2019-02-03T19:25:58.562Z,8.53
2019-02-03T19:28:39.711Z,7.90
2019-02-03T19:31:21.257Z,8.07
2019-02-03T19:34:02.332Z,7.63
2019-02-03T19:36:43.409Z,9.70
2019-02-03T19:39:25.613Z,9.60
2019-02-03T19:42:06.707Z,10.30
2019-02-03T19:44:57.846Z,20.03
2019-02-03T19:47:30.747Z,13.87
2019-02-03T19:50:11.752Z,12.50
2019-02-03T19:52:53.434Z,10.27
2019-02-03T19:55:34.250Z,11.23
2019-02-03T19:58:15.074Z,9.90
2019-02-03T20:00:56.358Z,10.07
2019-02-03T20:03:37.681Z,10.07
2019-02-03T20:06:18.849Z,8.63
2019-02-03T20:09:00.524Z,9.87
2019-02-03T20:11:43.348Z,8.67
2019-02-03T20:17:08.577Z,9.30
2019-02-03T20:19:49.366Z,9.50
2019-02-03T20:22:31.407Z,11.57
2019-02-03T20:25:12.318Z,13.87
2019-02-03T20:27:54.728Z,11.63
2019-02-03T20:30:39.060Z,11.87
2019-02-03T20:33:20.623Z,9.80
2019-02-03T20:36:02.323Z,9.83
2019-02-03T20:41:30.987Z,7.67
2019-02-03T20:46:59.149Z,7.40
2019-02-03T20:49:43.523Z,7.57
2019-02-03T20:52:24.748Z,8.33
2019-02-03T20:55:05.599Z,7.33
2019-02-03T20:57:47.123Z,7.00
2019-02-03T21:00:28.018Z,7.53
2019-02-03T21:05:53.097Z,8.40
2019-02-03T21:08:34.456Z,8.43
2019-02-03T21:11:15.967Z,9.73
2019-02-03T21:13:56.695Z,10.13
2019-02-03T21:16:37.451Z,9.03
2019-02-03T21:19:19.263Z,8.77
2019-02-03T21:21:59.847Z,9.23
2019-02-03T21:27:29.271Z,8.17
2019-02-03T21:30:12.337Z,7.80
2019-02-03T21:32:53.870Z,8.70
2019-02-03T21:35:34.802Z,7.80
2019-02-03T21:38:24.298Z,8.63
2019-02-03T21:41:12.315Z,7.87
2019-02-03T21:44:00.124Z,8.23
2019-02-03T21:46:47.894Z,7.73
2019-02-03T21:52:42.868Z,8.07
2019-02-03T21:58:40.065Z,10.40
2019-02-03T22:01:28.118Z,9.87
2019-02-03T22:04:16.165Z,10.43
2019-02-03T22:07:04.256Z,9.70
2019-02-03T22:13:13.981Z,10.73
2019-02-03T22:15:55.905Z,11.23
2019-02-03T22:18:37.726Z,11.03
2019-02-03T22:21:18.653Z,10.60
2019-02-03T22:23:59.374Z,11.53
2019-02-03T22:26:42.286Z,11.47
2019-02-03T22:29:24.894Z,10.80
2019-02-03T22:32:06.028Z,11.23
2019-02-03T22:34:46.608Z,10.70
2019-02-03T22:37:27.751Z,11.27
2019-02-03T22:40:08.532Z,9.93
2019-02-03T22:42:50.015Z,11.00
2019-02-03T22:45:32.453Z,10.50
2019-02-03T22:48:13.424Z,10.43
2019-02-03T22:50:56.481Z,11.57
2019-02-03T22:53:40.170Z,11.60
2019-02-03T22:56:21.321Z,11.80
2019-02-03T22:59:02.170Z,12.37
2019-02-03T23:01:42.900Z,11.60
2019-02-03T23:04:24.161Z,10.30
2019-02-03T23:07:05.058Z,10.33
2019-02-03T23:12:32.378Z,10.57
2019-02-03T23:15:13.981Z,10.30
2019-02-03T23:17:55.060Z,9.83
2019-02-03T23:20:35.964Z,10.30
2019-02-03T23:23:17.617Z,10.87
2019-02-03T23:25:59.379Z,10.13
2019-02-03T23:28:39.946Z,10.90
2019-02-03T23:31:22.383Z,10.93
2019-02-03T23:36:50.004Z,11.63
2019-02-03T23:39:30.547Z,11.40
2019-02-03T23:42:11.689Z,11.73
2019-02-03T23:44:56.682Z,11.70
2019-02-03T23:47:37.971Z,12.33
2019-02-03T23:50:18.740Z,11.60
2019-02-03T23:53:00.209Z,11.67
2019-02-03T23:55:41.238Z,11.00
